Arivaca, Arizona
Current Conditions -  °F | °C
As of 2:54 AM on Monday 20 Oct 2014 (Local Time) from KOLS Reporting Station
Clear Clear  
Wind Chill: 54°   Ceiling: Unl
Heat Index: 54°   Visibility: 10mi
Dew Point: 46°   Wind: 5mph
Humidity: 75%   Direction: 20°NNE
Pressure: 29.98"   Gusts: NA
Location:  31.57°N, 111.33°W
Report Text: KOLS 200954Z AUTO 02004KT 10SM CLR 12/08 A2998 RMK AO2 SLP099 T01220078
Loading
Personal Weather Stations






























Interactive Weather Map
Tropical Storm Tracking
New forecast layout! Learn more

10-Day Weather Forecast

Advertisements
Track Severe Weather on mobile